Tunnerville, South Dakota
Current Conditions -  °F | °C
As of 10:14 AM on Monday 26 Jan 2015 (Local Time) from KCNB Reporting Station
Clear Clear  
Wind Chill: 36°   Ceiling: Unl
Heat Index: 42°   Visibility: 10mi
Dew Point: 35°   Wind: 12mph
Humidity: 75%   Direction: 290°WNW
Pressure: 29.82"   Gusts: NA
Location:  44.7895°N, 96.7201°W
Report Text: KCNB 261614Z AUTO 29010KT 10SM CLR 06/02 A2982 RMK AO2 T00560015
Loading
Personal Weather Stations






























Interactive Weather Map New forecast layout! Learn more

10-Day Weather Forecast

Advertisements
Track Severe Weather on mobile